Wendy C — WYB6131 — position and weather

sailwx.info

Track history (hours):
 
Tides and Currents Weather Stations Pressure Air Temp Water Temp Dewpoint Dewpoint Depression Visibility Wind Speed Wind Dir Waves Ship Positions

Wendy C

Owner: Harbor Towing & Fleeting, Inc., Metairie, LA. More information available from US FCC via Universal Licensing System and Coast Guard Vessel Documentation Center.

Last reported at 2015-Feb-01 17:32 UTC. Time now 2015-Feb-01 18:10 UTC.
Position N 29°57' W 090°02'.

Length 19 m; draft 3 m.

Type: Towing. MMSI: 366160126.

Date/timePositionNaut miles runAvg speedWind from/ knotsBaromVisibWave heightAir tempDewpointWater temp
2015-Feb-01 17:32N 29°57' W 090°02'1 1.5
2015-Feb-01 16:32N 29°56' W 090°00'0 0.0
2015-Feb-01 15:31N 29°56' W 090°00'0 0.0
2015-Feb-01 14:24N 29°56' W 090°00'2 2.4
2015-Feb-01 13:28N 29°58' W 090°02'1 0.1
2015-Feb-01 05:20N 29°58' W 090°02'3 1.5
2015-Feb-01 03:22N 29°60' W 089°59'3 2.7
2015-Feb-01 02:13N 29°57' W 090°02'1 0.5
2015-Jan-31 23:25N 29°56' W 090°00'0 0.0
2015-Jan-31 22:05N 29°56' W 090°00'0 0.0
2015-Jan-31 21:29N 29°56' W 090°00'0 0.0
2015-Jan-31 20:16N 29°56' W 090°00'2 2.9
2015-Jan-31 19:31N 29°55' W 089°58'4 4.0
2015-Jan-31 18:30N 29°58' W 090°02'2 2.1
2015-Jan-31 17:32N 29°60' W 090°01'3 2.9
2015-Jan-31 16:27N 29°57' W 090°00'0 0.3
2015-Jan-31 15:20N 29°56' W 090°00'0 0.0
2015-Jan-31 14:31N 29°56' W 090°00'2 2.0
2015-Jan-31 13:29N 29°58' W 090°02'3 3.0
2015-Jan-31 12:33N 29°60' W 089°59'5 5.1
2015-Jan-31 11:32N 30°01' W 089°54'1 0.7
2015-Jan-31 10:07N 30°01' W 089°55'3 5.8
2015-Jan-31 09:32N 30°00' W 089°58'4 0.4
2015-Jan-30 23:31N 29°56' W 090°00'0 0.0
2015-Jan-30 22:21N 29°56' W 090°00'0 0.0
2015-Jan-30 21:27N 29°56' W 090°00'0 0.0
2015-Jan-30 20:27N 29°56' W 090°00'0 0.0
2015-Jan-30 19:13N 29°56' W 090°00'1 1.2
2015-Jan-30 18:32N 29°56' W 089°60'3 0.8
2015-Jan-30 14:28N 29°57' W 090°03'3 0.8
2015-Jan-30 10:12N 29°56' W 089°59'2 1.1
2015-Jan-30 08:30N 29°57' W 090°01'3 2.9
2015-Jan-30 07:31N 29°60' W 090°01'3 0.4
2015-Jan-29 22:18N 29°56' W 090°00'0 0.0
2015-Jan-29 20:19N 29°56' W 090°00'0 0.1
2015-Jan-29 17:23N 29°57' W 090°00'0 0.4
2015-Jan-29 16:32N 29°56' W 090°00'0 0.0
2015-Jan-29 15:33N 29°56' W 090°00'0 0.0
2015-Jan-29 14:31N 29°56' W 090°00'0 0.0
2015-Jan-29 11:30N 29°56' W 090°00'0 0.0
2015-Jan-29 09:29N 29°56' W 090°00'0 0.0
2015-Jan-29 08:32N 29°56' W 090°00'0 0.0
2015-Jan-29 07:33N 29°56' W 090°00'0 0.0
2015-Jan-29 06:29N 29°56' W 090°00'0 0.2
2015-Jan-29 05:28N 29°56' W 090°01'2 1.9
2015-Jan-29 04:28N 29°58' W 090°02'2 1.9
2015-Jan-29 03:30N 29°60' W 090°01'2 2.2
2015-Jan-29 02:26N 29°58' W 090°02'2 1.3
2015-Jan-29 01:05N 29°56' W 090°00'0 0.0
2015-Jan-28 18:15N 29°56' W 090°00'4 1.8
2015-Jan-28 16:18N 29°60' W 089°60'4 1.3
2015-Jan-28 13:32N 29°56' W 090°00'0 0.1
2015-Jan-28 11:21N 29°56' W 090°00'0 0.0
2015-Jan-28 10:33N 29°56' W 090°00'0 0.0
2015-Jan-28 09:10N 29°56' W 090°00'0 0.0
2015-Jan-28 08:33N 29°56' W 090°00'2 2.1
2015-Jan-28 07:30N 29°58' W 090°02'2 2.3
2015-Jan-28 06:33N 29°60' W 090°00'1 1.4
2015-Jan-28 05:33N 29°59' W 090°01'2 2.1
2015-Jan-28 04:32N 29°57' W 090°01'1 0.9
2015-Jan-28 03:33N 29°56' W 090°00'0 0.0
2015-Jan-28 02:30N 29°56' W 090°00'3 2.6
2015-Jan-28 01:33N 29°58' W 090°02'1 0.7
2015-Jan-28 00:33N 29°57' W 090°02'2 1.4
2015-Jan-27 23:23N 29°59' W 090°01'3 0.3
2015-Jan-27 12:07N 29°56' W 089°60'1 2.3
2015-Jan-27 11:32N 29°57' W 090°01'3 2.4
2015-Jan-27 10:16N 29°60' W 089°60'4 1.6
2015-Jan-27 07:25N 30°01' W 089°55'5 6.1
2015-Jan-27 06:33N 29°60' W 090°01'3 2.6
2015-Jan-27 05:33N 29°57' W 090°01'1 0.6
2015-Jan-27 03:27N 29°56' W 090°00'0 0.0
2015-Jan-27 02:31N 29°56' W 090°00'2 2.3
2015-Jan-27 01:33N 29°58' W 090°02'1 0.7
2015-Jan-27 00:31N 29°58' W 090°02'3 3.6
2015-Jan-26 23:33N 30°00' W 089°58'4 0.3
2015-Jan-26 08:31N 29°56' W 090°00'0 0.0
2015-Jan-26 07:25N 29°56' W 090°00'0 0.0
2015-Jan-26 06:14N 29°56' W 090°00'0 0.0
2015-Jan-26 05:32N 29°56' W 090°00'0 0.0
2015-Jan-26 04:26N 29°56' W 090°00'1 0.6
2015-Jan-26 03:33N 29°57' W 090°01'3 2.6
2015-Jan-26 02:29N 29°55' W 090°04'1 0.6
2015-Jan-26 01:33N 29°56' W 090°03'2 1.7
2015-Jan-26 00:30N 29°58' W 090°02'1 0.9
2015-Jan-25 23:33N 29°58' W 090°02'0 0.3
2015-Jan-25 22:31N 29°58' W 090°01'2 1.7
2015-Jan-25 21:33N 29°60' W 090°01'0 0.5
2015-Jan-25 20:29N 29°59' W 090°01'0 0.3
2015-Jan-25 19:33N 29°59' W 090°01'0 0.0
2015-Jan-25 18:30N 29°59' W 090°01'0 0.1
2015-Jan-25 17:31N 29°59' W 090°01'0 0.0
2015-Jan-25 16:33N 29°59' W 090°01'0 0.1
2015-Jan-25 15:30N 29°59' W 090°01'0 0.1
2015-Jan-25 14:31N 29°59' W 090°01'2 1.6
2015-Jan-25 13:33N 29°58' W 090°02'2 1.8
2015-Jan-25 12:32N 29°56' W 090°00'0 0.0
2015-Jan-25 11:33N 29°56' W 090°00'1 0.7
2015-Jan-25 10:33N 29°57' W 090°01'1 1.3
2015-Jan-25 09:29N 29°58' W 090°02'2 2.3
2015-Jan-25 08:31N 29°60' W 090°00'2 1.5
2015-Jan-25 07:23N 29°59' W 090°01'1 1.0
2015-Jan-25 06:32N 29°58' W 090°02'2 0.7
2015-Jan-25 04:06N 29°56' W 090°00'1 0.0
2015-Jan-24 05:04N 29°57' W 090°01'3 2.1
2015-Jan-24 03:32N 29°60' W 090°01'2 1.8
2015-Jan-24 02:13N 29°58' W 090°02'2 2.6
2015-Jan-24 01:30N 29°57' W 090°00'0 0.2
2015-Jan-24 00:10N 29°56' W 090°00'0 0.3
2015-Jan-23 23:21N 29°56' W 090°00'0 0.0
2015-Jan-23 22:33N 29°56' W 090°00'0 0.0
2015-Jan-23 21:33N 29°56' W 090°00'0 0.0
2015-Jan-23 20:31N 29°56' W 090°00'1 0.7
2015-Jan-23 18:25N 29°56' W 089°59'3 4.0
2015-Jan-23 17:32N 29°58' W 090°02'0 0.5
2015-Jan-23 16:33N 29°58' W 090°02'2 1.8
2015-Jan-23 15:31N 29°56' W 090°00'0 0.0
2015-Jan-23 14:33N 29°56' W 090°00'0 0.0
2015-Jan-23 13:33N 29°56' W 090°00'0 0.0
2015-Jan-23 12:31N 29°56' W 090°00'0 0.0
2015-Jan-23 11:30N 29°56' W 090°00'0 0.0
2015-Jan-23 10:33N 29°56' W 090°00'0 0.0
2015-Jan-23 09:33N 29°56' W 090°00'2 2.1
2015-Jan-23 08:32N 29°58' W 090°02'0 0.0
2015-Jan-23 07:19N 29°58' W 090°02'1 1.0
2015-Jan-23 06:30N 29°58' W 090°02'2 0.2
2015-Jan-22 22:07N 29°56' W 090°00'0 0.0
2015-Jan-22 21:12N 29°56' W 090°00'0 0.2
2015-Jan-22 20:29N 29°56' W 090°00'2 2.1
2015-Jan-22 19:29N 29°58' W 090°02'  
Track history (hours):
 
Tides and Currents Weather Stations Pressure Air Temp Water Temp Dewpoint Dewpoint Depression Visibility Wind Speed Wind Dir Waves Ship Positions

Wendy C

Owner: Harbor Towing & Fleeting, Inc., Metairie, LA. More information available from US FCC via Universal Licensing System and Coast Guard Vessel Documentation Center.

Last reported at 2015-Feb-01 17:32 UTC. Time now 2015-Feb-01 18:10 UTC.
Position N 29°57' W 090°02'.

Length 19 m; draft 3 m.

Type: Towing. MMSI: 366160126.

Date/timePositionNaut miles runAvg speedWind from/ knotsBaromVisibWave heightAir tempDewpointWater temp
2015-Feb-01 17:32N 29°57' W 090°02'1 1.5
2015-Feb-01 16:32N 29°56' W 090°00'0 0.0
2015-Feb-01 15:31N 29°56' W 090°00'0 0.0
2015-Feb-01 14:24N 29°56' W 090°00'2 2.4
2015-Feb-01 13:28N 29°58' W 090°02'1 0.1
2015-Feb-01 05:20N 29°58' W 090°02'3 1.5
2015-Feb-01 03:22N 29°60' W 089°59'3 2.7
2015-Feb-01 02:13N 29°57' W 090°02'1 0.5
2015-Jan-31 23:25N 29°56' W 090°00'0 0.0
2015-Jan-31 22:05N 29°56' W 090°00'0 0.0
2015-Jan-31 21:29N 29°56' W 090°00'0 0.0
2015-Jan-31 20:16N 29°56' W 090°00'2 2.9
2015-Jan-31 19:31N 29°55' W 089°58'4 4.0
2015-Jan-31 18:30N 29°58' W 090°02'2 2.1
2015-Jan-31 17:32N 29°60' W 090°01'3 2.9
2015-Jan-31 16:27N 29°57' W 090°00'0 0.3
2015-Jan-31 15:20N 29°56' W 090°00'0 0.0
2015-Jan-31 14:31N 29°56' W 090°00'2 2.0
2015-Jan-31 13:29N 29°58' W 090°02'3 3.0
2015-Jan-31 12:33N 29°60' W 089°59'5 5.1
2015-Jan-31 11:32N 30°01' W 089°54'1 0.7
2015-Jan-31 10:07N 30°01' W 089°55'3 5.8
2015-Jan-31 09:32N 30°00' W 089°58'4 0.4
2015-Jan-30 23:31N 29°56' W 090°00'0 0.0
2015-Jan-30 22:21N 29°56' W 090°00'0 0.0
2015-Jan-30 21:27N 29°56' W 090°00'0 0.0
2015-Jan-30 20:27N 29°56' W 090°00'0 0.0
2015-Jan-30 19:13N 29°56' W 090°00'1 1.2
2015-Jan-30 18:32N 29°56' W 089°60'3 0.8
2015-Jan-30 14:28N 29°57' W 090°03'3 0.8
2015-Jan-30 10:12N 29°56' W 089°59'2 1.1
2015-Jan-30 08:30N 29°57' W 090°01'3 2.9
2015-Jan-30 07:31N 29°60' W 090°01'3 0.4
2015-Jan-29 22:18N 29°56' W 090°00'0 0.0
2015-Jan-29 20:19N 29°56' W 090°00'0 0.1
2015-Jan-29 17:23N 29°57' W 090°00'0 0.4
2015-Jan-29 16:32N 29°56' W 090°00'0 0.0
2015-Jan-29 15:33N 29°56' W 090°00'0 0.0
2015-Jan-29 14:31N 29°56' W 090°00'0 0.0
2015-Jan-29 11:30N 29°56' W 090°00'0 0.0
2015-Jan-29 09:29N 29°56' W 090°00'0 0.0
2015-Jan-29 08:32N 29°56' W 090°00'0 0.0
2015-Jan-29 07:33N 29°56' W 090°00'0 0.0
2015-Jan-29 06:29N 29°56' W 090°00'0 0.2
2015-Jan-29 05:28N 29°56' W 090°01'2 1.9
2015-Jan-29 04:28N 29°58' W 090°02'2 1.9
2015-Jan-29 03:30N 29°60' W 090°01'2 2.2
2015-Jan-29 02:26N 29°58' W 090°02'2 1.3
2015-Jan-29 01:05N 29°56' W 090°00'0 0.0
2015-Jan-28 18:15N 29°56' W 090°00'4 1.8
2015-Jan-28 16:18N 29°60' W 089°60'4 1.3
2015-Jan-28 13:32N 29°56' W 090°00'0 0.1
2015-Jan-28 11:21N 29°56' W 090°00'0 0.0
2015-Jan-28 10:33N 29°56' W 090°00'0 0.0
2015-Jan-28 09:10N 29°56' W 090°00'0 0.0
2015-Jan-28 08:33N 29°56' W 090°00'2 2.1
2015-Jan-28 07:30N 29°58' W 090°02'2 2.3
2015-Jan-28 06:33N 29°60' W 090°00'1 1.4
2015-Jan-28 05:33N 29°59' W 090°01'2 2.1
2015-Jan-28 04:32N 29°57' W 090°01'1 0.9
2015-Jan-28 03:33N 29°56' W 090°00'0 0.0
2015-Jan-28 02:30N 29°56' W 090°00'3 2.6
2015-Jan-28 01:33N 29°58' W 090°02'1 0.7
2015-Jan-28 00:33N 29°57' W 090°02'2 1.4
2015-Jan-27 23:23N 29°59' W 090°01'3 0.3
2015-Jan-27 12:07N 29°56' W 089°60'1 2.3
2015-Jan-27 11:32N 29°57' W 090°01'3 2.4
2015-Jan-27 10:16N 29°60' W 089°60'4 1.6
2015-Jan-27 07:25N 30°01' W 089°55'5 6.1
2015-Jan-27 06:33N 29°60' W 090°01'3 2.6
2015-Jan-27 05:33N 29°57' W 090°01'1 0.6
2015-Jan-27 03:27N 29°56' W 090°00'0 0.0
2015-Jan-27 02:31N 29°56' W 090°00'2 2.3
2015-Jan-27 01:33N 29°58' W 090°02'1 0.7
2015-Jan-27 00:31N 29°58' W 090°02'3 3.6
2015-Jan-26 23:33N 30°00' W 089°58'4 0.3
2015-Jan-26 08:31N 29°56' W 090°00'0 0.0
2015-Jan-26 07:25N 29°56' W 090°00'0 0.0
2015-Jan-26 06:14N 29°56' W 090°00'0 0.0
2015-Jan-26 05:32N 29°56' W 090°00'0 0.0
2015-Jan-26 04:26N 29°56' W 090°00'1 0.6
2015-Jan-26 03:33N 29°57' W 090°01'3 2.6
2015-Jan-26 02:29N 29°55' W 090°04'1 0.6
2015-Jan-26 01:33N 29°56' W 090°03'2 1.7
2015-Jan-26 00:30N 29°58' W 090°02'1 0.9
2015-Jan-25 23:33N 29°58' W 090°02'0 0.3
2015-Jan-25 22:31N 29°58' W 090°01'2 1.7
2015-Jan-25 21:33N 29°60' W 090°01'0 0.5
2015-Jan-25 20:29N 29°59' W 090°01'0 0.3
2015-Jan-25 19:33N 29°59' W 090°01'0 0.0
2015-Jan-25 18:30N 29°59' W 090°01'0 0.1
2015-Jan-25 17:31N 29°59' W 090°01'0 0.0
2015-Jan-25 16:33N 29°59' W 090°01'0 0.1
2015-Jan-25 15:30N 29°59' W 090°01'0 0.1
2015-Jan-25 14:31N 29°59' W 090°01'2 1.6
2015-Jan-25 13:33N 29°58' W 090°02'2 1.8
2015-Jan-25 12:32N 29°56' W 090°00'0 0.0
2015-Jan-25 11:33N 29°56' W 090°00'1 0.7
2015-Jan-25 10:33N 29°57' W 090°01'1 1.3
2015-Jan-25 09:29N 29°58' W 090°02'2 2.3
2015-Jan-25 08:31N 29°60' W 090°00'2 1.5
2015-Jan-25 07:23N 29°59' W 090°01'1 1.0
2015-Jan-25 06:32N 29°58' W 090°02'2 0.7
2015-Jan-25 04:06N 29°56' W 090°00'1 0.0
2015-Jan-24 05:04N 29°57' W 090°01'3 2.1
2015-Jan-24 03:32N 29°60' W 090°01'2 1.8
2015-Jan-24 02:13N 29°58' W 090°02'2 2.6
2015-Jan-24 01:30N 29°57' W 090°00'0 0.2
2015-Jan-24 00:10N 29°56' W 090°00'0 0.3
2015-Jan-23 23:21N 29°56' W 090°00'0 0.0
2015-Jan-23 22:33N 29°56' W 090°00'0 0.0
2015-Jan-23 21:33N 29°56' W 090°00'0 0.0
2015-Jan-23 20:31N 29°56' W 090°00'1 0.7
2015-Jan-23 18:25N 29°56' W 089°59'3 4.0
2015-Jan-23 17:32N 29°58' W 090°02'0 0.5
2015-Jan-23 16:33N 29°58' W 090°02'2 1.8
2015-Jan-23 15:31N 29°56' W 090°00'0 0.0
2015-Jan-23 14:33N 29°56' W 090°00'0 0.0
2015-Jan-23 13:33N 29°56' W 090°00'0 0.0
2015-Jan-23 12:31N 29°56' W 090°00'0 0.0
2015-Jan-23 11:30N 29°56' W 090°00'0 0.0
2015-Jan-23 10:33N 29°56' W 090°00'0 0.0
2015-Jan-23 09:33N 29°56' W 090°00'2 2.1
2015-Jan-23 08:32N 29°58' W 090°02'0 0.0
2015-Jan-23 07:19N 29°58' W 090°02'1 1.0
2015-Jan-23 06:30N 29°58' W 090°02'2 0.2
2015-Jan-22 22:07N 29°56' W 090°00'0 0.0
2015-Jan-22 21:12N 29°56' W 090°00'0 0.2
2015-Jan-22 20:29N 29°56' W 090°00'2 2.1
2015-Jan-22 19:29N 29°58' W 090°02'  

Dump ship's entire track history